Time;durP1;ratioP1;P1;durP2;ratioP2;P2;SDS_P1;SDS_P2;PMS_P1;PMS_P2;Temp;Humidity;BMP_temperature;BMP_pressure;BME280_temperature;BME280_humidity;BME280_pressure;Samples;Min_cycle;Max_cycle;Signal;HPM_P1;HPM_P2
2022/03/24 00:02:25;;;;;;;48.65;13.77;;;14.30;77.40;;;;;;5010064;28;20025;-75
2022/03/24 00:04:50;;;;;;;46.95;12.85;;;14.30;77.40;;;;;;5026903;28;20021;-77
2022/03/24 00:07:16;;;;;;;38.92;12.00;;;14.30;77.40;;;;;;5025274;28;20037;-73
2022/03/24 00:09:41;;;;;;;41.45;12.60;;;14.30;77.40;;;;;;5013696;28;20041;-75
2022/03/24 00:12:08;;;;;;;47.50;13.48;;;14.30;77.40;;;;;;5016484;28;20037;-79
2022/03/24 00:14:33;;;;;;;38.15;11.45;;;14.30;77.40;;;;;;5031563;28;20123;-75
2022/03/24 00:16:59;;;;;;;35.50;11.90;;;14.30;77.40;;;;;;5029259;28;20495;-74
2022/03/24 00:19:26;;;;;;;44.55;12.52;;;14.30;77.50;;;;;;5013456;28;20022;-75
2022/03/24 00:21:51;;;;;;;41.47;12.85;;;14.30;77.50;;;;;;5012476;28;20080;-77
2022/03/24 00:24:17;;;;;;;46.88;12.52;;;14.30;77.50;;;;;;5026110;28;20037;-75
2022/03/24 00:26:43;;;;;;;37.33;11.43;;;14.30;77.50;;;;;;5017379;28;20029;-74
2022/03/24 00:29:09;;;;;;;39.25;12.15;;;14.30;77.50;;;;;;5013503;28;20065;-76
2022/03/24 00:31:35;;;;;;;33.63;12.05;;;14.30;77.50;;;;;;5012300;28;20022;-74
2022/03/24 00:34:01;;;;;;;39.83;12.13;;;14.40;77.60;;;;;;5030835;28;20402;-75
2022/03/24 00:36:26;;;;;;;37.33;12.63;;;14.30;77.50;;;;;;5031458;28;20029;-76
2022/03/24 00:38:55;;;;;;;37.97;12.38;;;14.30;77.50;;;;;;5030449;28;20578;-75
2022/03/24 00:41:21;;;;;;;37.78;12.32;;;14.30;77.60;;;;;;5031628;28;20120;-74
2022/03/24 00:43:48;;;;;;;36.38;12.70;;;14.30;77.60;;;;;;5031895;28;20064;-76
2022/03/24 00:46:15;;;;;;;43.88;12.73;;;14.30;77.60;;;;;;5031002;28;20029;-75
2022/03/24 00:48:41;;;;;;;39.30;11.73;;;14.30;77.60;;;;;;5030992;28;20068;-77
2022/03/24 00:51:06;;;;;;;37.35;12.02;;;14.30;77.60;;;;;;5017747;28;20561;-74
2022/03/24 00:53:32;;;;;;;36.78;12.43;;;14.30;77.60;;;;;;5010675;28;20034;-77
2022/03/24 00:55:59;;;;;;;35.97;11.20;;;14.30;77.60;;;;;;5010775;28;20033;-75
2022/03/24 00:58:25;;;;;;;38.50;12.55;;;14.30;77.60;;;;;;5012703;28;20091;-76
2022/03/24 01:00:50;;;;;;;31.98;11.32;;;14.30;77.60;;;;;;5010711;28;20030;-75
2022/03/24 01:03:16;;;;;;;42.63;12.40;;;14.30;77.60;;;;;;5010924;28;20073;-75
2022/03/24 01:05:42;;;;;;;38.78;12.38;;;14.30;77.60;;;;;;5030535;28;20029;-74
2022/03/24 01:08:08;;;;;;;40.38;11.80;;;14.30;77.60;;;;;;5016770;28;20036;-76
2022/03/24 01:10:35;;;;;;;36.65;11.90;;;14.30;77.60;;;;;;5018627;28;20091;-76
2022/03/24 01:13:02;;;;;;;42.88;12.68;;;14.30;77.50;;;;;;5011026;28;20141;-75
2022/03/24 01:15:28;;;;;;;36.00;11.70;;;14.30;77.50;;;;;;5010879;28;20058;-75
2022/03/24 01:17:58;;;;;;;31.92;11.40;;;14.30;77.60;;;;;;5009552;28;20099;-75
2022/03/24 01:20:24;;;;;;;51.00;12.35;;;14.30;77.60;;;;;;5011209;28;20116;-75
2022/03/24 01:22:49;;;;;;;38.03;11.82;;;14.30;77.80;;;;;;5010990;28;20900;-75
2022/03/24 01:25:16;;;;;;;35.22;12.13;;;14.30;77.60;;;;;;5016398;28;20026;-76
2022/03/24 01:27:42;;;;;;;40.20;12.45;;;14.20;77.50;;;;;;5014539;28;20025;-74
2022/03/24 01:30:09;;;;;;;37.42;12.07;;;14.20;77.50;;;;;;5010867;28;20480;-81
2022/03/24 01:32:35;;;;;;;27.33;11.23;;;14.30;77.70;;;;;;5010933;28;20062;-75
2022/03/24 01:35:02;;;;;;;32.42;11.43;;;14.30;77.60;;;;;;5020890;28;20104;-74
2022/03/24 01:37:28;;;;;;;35.03;11.95;;;14.30;77.60;;;;;;5025830;28;20022;-74
2022/03/24 01:39:53;;;;;;;33.47;11.68;;;14.30;77.60;;;;;;5024694;28;20040;-74
2022/03/24 01:42:20;;;;;;;34.20;11.80;;;14.20;77.60;;;;;;5028485;28;20029;-75
2022/03/24 01:44:47;;;;;;;35.90;11.77;;;14.30;77.80;;;;;;5030515;28;20026;-75
2022/03/24 01:47:14;;;;;;;33.30;11.50;;;14.30;77.70;;;;;;5030073;28;20026;-75
2022/03/24 01:49:42;;;;;;;36.35;11.93;;;14.30;77.80;;;;;;5031859;28;20076;-74
2022/03/24 01:52:13;;;;;;;40.20;12.30;;;14.20;77.60;;;;;;5030363;28;20034;-74
2022/03/24 01:54:40;;;;;;;;;;;14.20;77.50;;;;;;5031427;28;20022;-74
2022/03/24 01:57:09;;;;;;;73.28;12.77;;;14.20;77.60;;;;;;5019410;28;19905;-77
2022/03/24 01:59:37;;;;;;;50.95;12.75;;;14.30;78.00;;;;;;5025813;28;20076;-75
2022/03/24 02:02:04;;;;;;;39.92;11.20;;;14.30;77.80;;;;;;5031016;28;20041;-74
2022/03/24 02:04:35;;;;;;;40.45;11.48;;;14.30;77.70;;;;;;5012041;28;20053;-76
2022/03/24 02:07:05;;;;;;;43.22;12.95;;;14.20;77.60;;;;;;5010066;28;20460;-75
2022/03/24 02:09:31;;;;;;;36.60;12.48;;;14.20;77.60;;;;;;5014977;28;20120;-75
2022/03/24 02:11:57;;;;;;;41.83;12.30;;;14.20;77.60;;;;;;5028696;28;20133;-74
2022/03/24 02:14:23;;;;;;;38.65;12.25;;;14.20;78.10;;;;;;5016484;28;20475;-75
2022/03/24 02:16:49;;;;;;;36.80;12.13;;;14.20;77.60;;;;;;5029616;28;20040;-73
2022/03/24 02:19:21;;;;;;;31.77;11.77;;;14.20;77.60;;;;;;5029757;28;20053;-76
2022/03/24 02:21:48;;;;;;;28.75;11.77;;;14.20;77.60;;;;;;5031641;28;20028;-75
2022/03/24 02:24:16;;;;;;;31.05;11.73;;;14.20;77.50;;;;;;5026388;28;20022;-75
2022/03/24 02:26:44;;;;;;;30.83;11.63;;;14.20;77.60;;;;;;5009511;28;20034;-74
2022/03/24 02:29:11;;;;;;;32.70;11.63;;;14.20;77.60;;;;;;5010724;28;20076;-75
2022/03/24 02:31:38;;;;;;;34.55;11.85;;;14.30;77.60;;;;;;5010073;28;20038;-76
2022/03/24 02:36:54;;;;;;;26.58;11.23;;;14.20;77.50;;;;;;5019196;28;20036;-76
2022/03/24 02:39:20;;;;;;;26.17;11.60;;;14.20;77.50;;;;;;5030506;28;20395;-74
2022/03/24 02:41:52;;;;;;;32.33;11.73;;;14.20;77.50;;;;;;5028660;28;20501;-73
2022/03/24 02:44:19;;;;;;;29.50;11.02;;;14.20;77.50;;;;;;5025448;28;20026;-75
2022/03/24 02:46:47;;;;;;;24.25;10.80;;;14.20;77.50;;;;;;5008973;28;20056;-75
2022/03/24 02:49:20;;;;;;;29.08;11.60;;;14.20;77.70;;;;;;5019614;28;20025;-75
2022/03/24 02:51:46;;;;;;;32.70;12.07;;;14.20;78.40;;;;;;5015418;28;20036;-77
2022/03/24 02:54:12;;;;;;;27.63;12.82;;;14.20;78.00;;;;;;5017523;28;20033;-76
2022/03/24 02:56:38;;;;;;;32.20;11.90;;;14.20;77.90;;;;;;5029325;28;20033;-77
2022/03/24 02:59:06;;;;;;;24.73;10.70;;;14.20;77.60;;;;;;5018503;28;20029;-77
2022/03/24 03:01:33;;;;;;;26.95;11.05;;;14.20;77.70;;;;;;5008536;28;20034;-74
2022/03/24 03:03:59;;;;;;;24.35;10.43;;;14.20;77.70;;;;;;5023816;28;20032;-75
2022/03/24 03:06:24;;;;;;;30.63;11.68;;;14.20;77.60;;;;;;5028119;28;20040;-74
2022/03/24 03:08:50;;;;;;;28.70;12.05;;;14.20;77.60;;;;;;5015229;28;20038;-76
2022/03/24 03:11:16;;;;;;;36.88;11.65;;;14.20;77.60;;;;;;5019098;28;20033;-76
2022/03/24 03:13:43;;;;;;;28.33;11.25;;;14.20;77.80;;;;;;5028350;28;20033;-74
2022/03/24 03:16:09;;;;;;;28.63;11.52;;;14.20;77.60;;;;;;5029800;28;20386;-75
2022/03/24 03:18:34;;;;;;;28.00;11.52;;;14.20;77.80;;;;;;5029385;28;20026;-76
2022/03/24 03:21:00;;;;;;;28.55;10.32;;;14.20;77.60;;;;;;5030227;28;20537;-79
2022/03/24 03:23:26;;;;;;;27.55;11.73;;;14.20;77.60;;;;;;5029349;28;20025;-76
2022/03/24 03:25:52;;;;;;;29.00;11.98;;;14.20;77.60;;;;;;5029265;28;20033;-75
2022/03/24 03:28:18;;;;;;;25.48;10.98;;;14.20;77.60;;;;;;5029715;28;20026;-76
2022/03/24 03:30:44;;;;;;;26.02;11.85;;;14.20;77.50;;;;;;5027956;28;20036;-77
2022/03/24 03:33:10;;;;;;;24.48;11.40;;;14.20;77.50;;;;;;5021861;28;20034;-75
2022/03/24 03:35:37;;;;;;;23.08;11.27;;;14.20;77.60;;;;;;5009026;28;20036;-77
2022/03/24 03:38:02;;;;;;;28.52;11.25;;;14.20;77.60;;;;;;5023326;28;20023;-75
2022/03/24 03:40:28;;;;;;;26.25;12.07;;;14.20;77.60;;;;;;5017752;28;20457;-76
2022/03/24 03:42:53;;;;;;;26.65;11.57;;;14.20;77.60;;;;;;5012634;28;20049;-74
2022/03/24 03:45:19;;;;;;;27.65;11.85;;;15.20;78.10;;;;;;5026396;28;20610;-75
2022/03/24 03:47:45;;;;;;;26.67;11.25;;;14.20;77.60;;;;;;5026893;28;20033;-75
2022/03/24 03:50:11;;;;;;;27.15;11.38;;;14.20;77.60;;;;;;5033602;28;20030;-76
2022/03/24 03:52:37;;;;;;;21.52;11.02;;;14.20;77.50;;;;;;5017721;28;20038;-77
2022/03/24 03:55:03;;;;;;;22.30;12.00;;;14.20;77.60;;;;;;5012557;28;20101;-76
2022/03/24 03:57:29;;;;;;;24.33;11.13;;;14.20;77.60;;;;;;5015737;28;20104;-74
2022/03/24 03:59:55;;;;;;;22.90;11.40;;;14.20;77.60;;;;;;5019589;28;20753;-76
2022/03/24 04:02:20;;;;;;;20.65;11.23;;;14.20;77.50;;;;;;5012780;28;20033;-75
2022/03/24 04:04:46;;;;;;;22.70;11.38;;;14.20;77.50;;;;;;5012719;28;20112;-75
2022/03/24 04:07:12;;;;;;;25.23;11.32;;;14.20;77.60;;;;;;5013349;28;20041;-74
2022/03/24 04:09:38;;;;;;;24.75;12.65;;;14.20;77.60;;;;;;5030522;28;20071;-75
2022/03/24 04:12:04;;;;;;;22.45;11.43;;;15.00;78.00;;;;;;5012556;28;20647;-76
2022/03/24 04:14:30;;;;;;;24.77;11.93;;;14.20;77.50;;;;;;5013229;28;20033;-76
2022/03/24 04:16:57;;;;;;;22.95;11.13;;;14.20;77.50;;;;;;5010738;28;20030;-77
2022/03/24 04:19:24;;;;;;;22.33;11.43;;;14.20;77.50;;;;;;5027575;28;20495;-77
2022/03/24 04:21:50;;;;;;;21.52;11.63;;;14.20;77.50;;;;;;5032491;28;20018;-76
2022/03/24 04:24:16;;;;;;;26.63;11.50;;;14.20;77.50;;;;;;5031685;28;20028;-79
2022/03/24 04:26:41;;;;;;;24.20;11.88;;;14.20;77.70;;;;;;5012626;28;20432;-75
2022/03/24 04:29:07;;;;;;;21.55;11.05;;;14.20;77.60;;;;;;5012729;28;20904;-75
2022/03/24 04:31:34;;;;;;;21.58;11.90;;;14.20;77.60;;;;;;5030980;28;20124;-75
2022/03/24 04:34:00;;;;;;;22.90;11.20;;;14.20;77.50;;;;;;5025414;28;20061;-79
2022/03/24 04:36:25;;;;;;;21.52;12.52;;;14.20;77.50;;;;;;5011823;28;20069;-76
2022/03/24 04:38:51;;;;;;;18.73;11.45;;;14.20;77.50;;;;;;5011283;28;20029;-76
2022/03/24 04:41:16;;;;;;;20.80;11.13;;;14.20;77.60;;;;;;5012515;28;20033;-76
2022/03/24 04:43:42;;;;;;;21.08;11.02;;;14.10;77.50;;;;;;5027672;28;20018;-76
2022/03/24 04:46:08;;;;;;;25.90;11.30;;;14.20;77.50;;;;;;5032455;28;20132;-74
2022/03/24 04:48:36;;;;;;;23.40;11.40;;;14.20;77.60;;;;;;5031485;28;20033;-77
2022/03/24 04:51:03;;;;;;;19.98;11.75;;;14.20;77.50;;;;;;5032595;28;20108;-76
2022/03/24 04:53:29;;;;;;;22.63;11.82;;;14.10;77.50;;;;;;5032469;28;20025;-74
2022/03/24 04:55:55;;;;;;;23.42;11.75;;;14.20;77.60;;;;;;5031548;28;20025;-76
2022/03/24 04:58:20;;;;;;;23.35;12.10;;;14.20;77.60;;;;;;5030825;28;20056;-78
2022/03/24 05:00:46;;;;;;;18.67;11.38;;;14.20;77.60;;;;;;5031020;28;20055;-79
2022/03/24 05:03:11;;;;;;;20.25;11.10;;;14.20;77.60;;;;;;5032395;28;20083;-75
2022/03/24 05:05:37;;;;;;;23.65;11.18;;;14.20;77.60;;;;;;5031658;28;20546;-75
2022/03/24 05:08:03;;;;;;;21.60;11.32;;;14.20;77.60;;;;;;5032278;28;20030;-76
2022/03/24 05:10:29;;;;;;;21.08;11.73;;;14.20;77.60;;;;;;5032337;28;20112;-78
2022/03/24 05:12:55;;;;;;;22.48;12.27;;;14.10;77.50;;;;;;5031307;28;20124;-75
2022/03/24 05:15:20;;;;;;;22.08;12.07;;;14.20;77.60;;;;;;5030716;28;20356;-75
2022/03/24 05:17:46;;;;;;;22.35;11.70;;;14.20;77.60;;;;;;5031892;28;20025;-76
2022/03/24 05:20:12;;;;;;;19.02;11.13;;;14.20;77.60;;;;;;5030908;28;20025;-74
2022/03/24 05:22:37;;;;;;;18.75;11.05;;;14.10;77.50;;;;;;5030990;28;20371;-75
2022/03/24 05:25:05;;;;;;;20.23;11.85;;;14.10;77.50;;;;;;5031793;28;20095;-75
2022/03/24 05:27:31;;;;;;;22.58;11.80;;;14.20;77.60;;;;;;5030332;28;20454;-76
2022/03/24 05:29:56;;;;;;;20.90;11.60;;;14.10;77.50;;;;;;5028925;28;20059;-75
2022/03/24 05:32:22;;;;;;;20.27;11.27;;;14.10;77.50;;;;;;5012601;28;20141;-73
2022/03/24 05:34:48;;;;;;;20.00;11.27;;;14.10;77.50;;;;;;5010015;28;20395;-76
2022/03/24 05:37:14;;;;;;;18.52;11.15;;;14.10;77.50;;;;;;5010582;28;20045;-77
2022/03/24 05:39:41;;;;;;;20.75;10.85;;;14.10;77.50;;;;;;5015408;28;20497;-74
2022/03/24 05:42:07;;;;;;;19.42;11.70;;;14.10;77.50;;;;;;5011783;28;20117;-76
2022/03/24 05:44:32;;;;;;;18.33;11.15;;;14.10;77.50;;;;;;5017789;28;20105;-75
2022/03/24 05:46:59;;;;;;;17.08;11.40;;;14.10;77.50;;;;;;5024442;28;20062;-73
2022/03/24 05:49:26;;;;;;;19.60;11.82;;;14.10;77.40;;;;;;5020068;28;20434;-75
2022/03/24 05:51:52;;;;;;;19.40;11.35;;;14.10;77.40;;;;;;5029328;28;20014;-74
2022/03/24 05:54:18;;;;;;;22.80;11.60;;;14.10;77.40;;;;;;5029616;28;20021;-74
2022/03/24 05:56:45;;;;;;;18.83;11.07;;;14.20;77.50;;;;;;5029908;28;20550;-75
2022/03/24 05:59:11;;;;;;;19.10;11.38;;;14.20;77.50;;;;;;5030182;28;20121;-76
2022/03/24 06:01:42;;;;;;;19.70;11.30;;;14.20;77.50;;;;;;5031204;28;20510;-74
2022/03/24 06:04:08;;;;;;;19.33;11.65;;;14.20;77.50;;;;;;5021229;28;20034;-76
2022/03/24 06:06:37;;;;;;;17.65;11.15;;;14.20;77.40;;;;;;5013789;28;20021;-74
2022/03/24 06:09:04;;;;;;;18.92;11.05;;;14.20;77.40;;;;;;5020449;28;20049;-76
2022/03/24 06:11:30;;;;;;;17.17;10.18;;;14.20;77.40;;;;;;5017920;28;20104;-75
2022/03/24 06:13:56;;;;;;;18.80;11.30;;;14.20;77.40;;;;;;5029836;28;20557;-76
2022/03/24 06:16:22;;;;;;;17.83;11.52;;;14.20;77.40;;;;;;5031447;28;20094;-79
2022/03/24 06:18:47;;;;;;;17.65;11.40;;;14.20;77.40;;;;;;5030428;28;20075;-76
2022/03/24 06:21:14;;;;;;;18.67;11.25;;;14.20;77.30;;;;;;5028971;28;20459;-77
2022/03/24 06:23:40;;;;;;;18.33;12.43;;;14.20;77.20;;;;;;5029052;28;20017;-76
2022/03/24 06:26:05;;;;;;;19.10;12.18;;;14.20;77.40;;;;;;5029412;28;20098;-79
2022/03/24 06:28:31;;;;;;;17.50;12.02;;;14.20;77.40;;;;;;5029291;28;20026;-76
2022/03/24 06:30:56;;;;;;;16.65;10.95;;;14.30;77.40;;;;;;5030238;28;20116;-75
2022/03/24 06:33:22;;;;;;;19.25;11.25;;;14.30;77.30;;;;;;5030067;28;20029;-75
2022/03/24 06:35:48;;;;;;;18.23;11.65;;;14.30;77.20;;;;;;5030472;28;20021;-77
2022/03/24 06:38:15;;;;;;;18.50;11.48;;;14.30;77.10;;;;;;5029355;28;20131;-75
2022/03/24 06:40:41;;;;;;;17.88;10.90;;;14.30;77.00;;;;;;5029944;28;20037;-76
2022/03/24 06:43:07;;;;;;;21.23;12.27;;;14.30;77.00;;;;;;5029921;28;20048;-74
2022/03/24 06:45:34;;;;;;;17.13;11.63;;;14.40;76.50;;;;;;5029577;28;20025;-74
2022/03/24 06:48:00;;;;;;;19.08;12.60;;;14.40;76.40;;;;;;5029834;28;20079;-76
2022/03/24 06:50:26;;;;;;;23.42;12.82;;;14.40;76.40;;;;;;5030050;28;20033;-76
2022/03/24 06:52:52;;;;;;;23.23;13.88;;;14.40;76.30;;;;;;5031245;28;20032;-76
2022/03/24 06:55:17;;;;;;;26.00;14.38;;;14.40;75.80;;;;;;5030211;28;20033;-75
2022/03/24 06:57:43;;;;;;;25.63;15.35;;;14.40;75.50;;;;;;5030760;28;20746;-75
2022/03/24 07:00:13;;;;;;;21.95;13.88;;;14.40;75.30;;;;;;5031087;28;20116;-75
2022/03/24 07:02:40;;;;;;;21.42;13.98;;;14.50;75.50;;;;;;5030942;28;20022;-76
2022/03/24 07:05:07;;;;;;;21.52;13.75;;;14.50;75.40;;;;;;5029895;28;20028;-77
2022/03/24 07:07:33;;;;;;;24.17;14.10;;;14.50;75.30;;;;;;5030579;28;20067;-76
2022/03/24 07:09:59;;;;;;;21.98;14.10;;;14.50;75.20;;;;;;5031228;28;20025;-75
2022/03/24 07:12:24;;;;;;;23.55;15.77;;;14.50;75.10;;;;;;5030908;28;20033;-76
2022/03/24 07:14:50;;;;;;;25.20;14.38;;;14.60;75.00;;;;;;5031054;28;20072;-76
2022/03/24 07:17:17;;;;;;;18.48;13.70;;;14.60;74.90;;;;;;5030227;28;20036;-76
2022/03/24 07:19:43;;;;;;;23.33;14.48;;;14.60;75.00;;;;;;5031007;28;20021;-76
2022/03/24 07:22:08;;;;;;;20.98;14.35;;;14.60;75.00;;;;;;5030997;28;20034;-76
2022/03/24 07:24:34;;;;;;;19.90;14.02;;;14.60;74.80;;;;;;5029786;28;20022;-76
2022/03/24 07:27:00;;;;;;;20.55;14.15;;;14.70;74.90;;;;;;5030575;28;20030;-76
2022/03/24 07:29:25;;;;;;;23.20;14.10;;;14.60;74.80;;;;;;5031202;28;20037;-77
2022/03/24 07:31:51;;;;;;;20.27;13.98;;;14.70;74.70;;;;;;5031143;28;20075;-76
2022/03/24 07:34:17;;;;;;;18.25;13.48;;;14.70;74.70;;;;;;5031394;28;20106;-74
2022/03/24 07:36:43;;;;;;;18.88;14.02;;;14.70;74.60;;;;;;5030894;28;20079;-74
2022/03/24 07:39:09;;;;;;;17.98;13.15;;;14.70;74.70;;;;;;5030083;28;20876;-75
2022/03/24 07:41:35;;;;;;;21.13;14.73;;;14.70;74.60;;;;;;5030241;28;20021;-76
2022/03/24 07:44:00;;;;;;;21.80;15.05;;;14.80;74.50;;;;;;5030859;28;20033;-74
2022/03/24 07:46:26;;;;;;;18.38;14.18;;;14.80;74.40;;;;;;5028558;28;20037;-77
2022/03/24 07:48:51;;;;;;;21.08;14.35;;;14.80;74.40;;;;;;5028733;28;20120;-79
2022/03/24 07:51:17;;;;;;;20.67;15.15;;;14.80;74.30;;;;;;5027908;28;20032;-76
2022/03/24 07:53:48;;;;;;;19.48;14.48;;;14.80;74.20;;;;;;5029477;28;20087;-79
2022/03/24 07:56:24;;;;;;;19.13;14.00;;;14.90;74.20;;;;;;5028269;28;20870;-75
2022/03/24 07:58:50;;;;;;;20.60;14.85;;;14.90;74.20;;;;;;5029401;28;20108;-76
2022/03/24 08:01:24;;;;;;;16.30;14.07;;;14.90;74.10;;;;;;5028564;28;20037;-77
2022/03/24 08:03:52;;;;;;;19.70;14.57;;;14.90;74.60;;;;;;5029755;28;20403;-76
2022/03/24 08:06:17;;;;;;;20.00;14.52;;;14.90;74.00;;;;;;5028733;28;20030;-75
2022/03/24 08:08:43;;;;;;;17.55;14.15;;;14.90;74.00;;;;;;5029775;28;20394;-77
2022/03/24 08:11:08;;;;;;;19.58;14.32;;;15.00;74.00;;;;;;5030515;28;20061;-74
2022/03/24 08:13:34;;;;;;;18.33;14.23;;;15.00;74.00;;;;;;5029191;28;20489;-76
2022/03/24 08:15:59;;;;;;;18.30;15.15;;;15.00;73.90;;;;;;5030169;28;20044;-77
2022/03/24 08:18:25;;;;;;;20.13;14.82;;;15.00;73.90;;;;;;5029726;28;20404;-74
2022/03/24 08:20:51;;;;;;;18.42;14.20;;;15.00;73.90;;;;;;5030499;28;20025;-76
2022/03/24 08:23:17;;;;;;;18.27;14.63;;;15.00;73.80;;;;;;5030241;28;20023;-76
2022/03/24 08:25:44;;;;;;;21.27;15.00;;;15.00;73.80;;;;;;5030568;28;20022;-77
2022/03/24 08:28:11;;;;;;;19.65;14.57;;;15.00;73.70;;;;;;5031726;28;20030;-75
2022/03/24 08:30:36;;;;;;;18.90;14.52;;;15.10;73.70;;;;;;5033321;28;20552;-77
2022/03/24 08:33:02;;;;;;;19.08;14.68;;;15.10;73.70;;;;;;5032692;28;20041;-77
2022/03/24 08:35:28;;;;;;;18.85;14.80;;;15.10;73.60;;;;;;5033061;28;20032;-76
2022/03/24 08:37:55;;;;;;;17.60;14.70;;;15.10;73.60;;;;;;5032536;28;20140;-75
2022/03/24 08:40:21;;;;;;;17.88;14.38;;;15.20;73.60;;;;;;5032771;28;20112;-76
2022/03/24 08:42:47;;;;;;;19.45;14.95;;;15.10;73.50;;;;;;5033680;28;20585;-77
2022/03/24 08:45:13;;;;;;;19.88;15.20;;;15.10;73.50;;;;;;5034073;28;20088;-76
2022/03/24 08:47:40;;;;;;;17.55;14.77;;;15.20;73.50;;;;;;5032015;28;20025;-78
2022/03/24 08:50:07;;;;;;;18.33;15.32;;;15.20;73.50;;;;;;5033809;28;20401;-75
2022/03/24 08:52:35;;;;;;;19.48;15.18;;;15.20;73.50;;;;;;5033738;28;20525;-76
2022/03/24 08:55:01;;;;;;;18.30;14.82;;;15.20;73.40;;;;;;5033644;28;20026;-76
2022/03/24 08:57:27;;;;;;;18.23;15.02;;;15.20;73.40;;;;;;5032584;28;20071;-76
2022/03/24 08:59:57;;;;;;;17.48;14.77;;;15.20;73.40;;;;;;5033547;28;20037;-78
2022/03/24 09:02:23;;;;;;;19.38;14.70;;;15.30;73.40;;;;;;5032817;28;20477;-76
2022/03/24 09:04:49;;;;;;;18.60;14.43;;;15.30;73.50;;;;;;5034283;28;20060;-76
2022/03/24 09:07:15;;;;;;;17.05;14.52;;;15.30;73.40;;;;;;5032023;28;20537;-75
2022/03/24 09:09:41;;;;;;;18.90;15.18;;;15.30;73.40;;;;;;5033986;28;20794;-75
2022/03/24 09:12:09;;;;;;;19.52;15.40;;;15.30;73.40;;;;;;5032564;28;20033;-75
2022/03/24 09:14:41;;;;;;;18.60;15.02;;;15.30;73.30;;;;;;5033916;28;20056;-75
2022/03/24 09:17:08;;;;;;;17.52;14.45;;;15.30;73.30;;;;;;5033543;28;20026;-76
2022/03/24 09:19:34;;;;;;;18.35;14.23;;;15.30;73.20;;;;;;5033630;28;20053;-75
2022/03/24 09:22:03;;;;;;;17.73;14.30;;;15.40;73.20;;;;;;5033899;28;20032;-74
2022/03/24 09:24:29;;;;;;;17.77;14.20;;;15.30;73.20;;;;;;5032629;28;20458;-76
2022/03/24 09:26:54;;;;;;;17.90;14.02;;;15.40;73.20;;;;;;5032425;28;20351;-76
2022/03/24 09:29:21;;;;;;;18.33;14.85;;;15.40;73.10;;;;;;5032688;28;20061;-81
2022/03/24 09:31:47;;;;;;;18.77;15.18;;;15.30;73.00;;;;;;5032365;28;20696;-76
2022/03/24 09:34:13;;;;;;;17.20;14.85;;;15.40;73.00;;;;;;5032594;28;20025;-74
2022/03/24 09:36:39;;;;;;;18.58;14.43;;;15.40;73.00;;;;;;5033507;28;20133;-76
2022/03/24 09:39:07;;;;;;;16.90;14.68;;;15.40;73.00;;;;;;5031274;28;20030;-74
2022/03/24 09:41:34;;;;;;;17.90;14.30;;;15.50;73.00;;;;;;5033376;28;20545;-76
2022/03/24 09:44:00;;;;;;;16.65;14.60;;;15.60;72.90;;;;;;5032031;28;20021;-76
2022/03/24 09:46:28;;;;;;;16.95;14.90;;;15.50;72.90;;;;;;5032818;28;20044;-75
2022/03/24 09:48:53;;;;;;;17.77;14.75;;;15.50;72.80;;;;;;5030287;28;20029;-76
2022/03/24 09:51:22;;;;;;;18.73;14.60;;;15.80;73.00;;;;;;5030433;28;20045;-79
2022/03/24 09:53:47;;;;;;;17.08;14.82;;;15.50;72.70;;;;;;5029607;28;20028;-76
2022/03/24 09:56:13;;;;;;;18.13;14.32;;;15.50;72.70;;;;;;5030764;28;20025;-75
2022/03/24 09:58:39;;;;;;;16.88;14.80;;;15.60;72.70;;;;;;5029806;28;20060;-77
2022/03/24 10:01:05;;;;;;;18.65;15.30;;;15.50;72.60;;;;;;5031503;28;20065;-76
2022/03/24 10:03:31;;;;;;;17.20;14.05;;;15.50;72.50;;;;;;5030208;28;20410;-77
2022/03/24 10:06:07;;;;;;;17.85;14.95;;;15.60;72.60;;;;;;5031541;28;20037;-78
2022/03/24 10:08:33;;;;;;;17.02;14.32;;;15.60;72.60;;;;;;5030086;28;20028;-76
2022/03/24 10:11:09;;;;;;;17.48;14.38;;;15.50;72.50;;;;;;5031123;28;20025;-75
2022/03/24 10:13:54;;;;;;;17.58;14.48;;;15.60;72.60;;;;;;5030523;28;20029;-76
2022/03/24 10:16:35;;;;;;;17.63;14.50;;;15.60;72.60;;;;;;5030145;28;20519;-78
2022/03/24 10:19:05;;;;;;;;;;;15.60;72.60;;;;;;5030579;28;20491;-75
2022/03/24 10:21:38;;;;;;;17.10;14.18;;;15.60;72.50;;;;;;5031661;28;19909;-75
2022/03/24 10:24:13;;;;;;;16.40;14.07;;;15.60;72.60;;;;;;5031702;28;20036;-77
2022/03/24 10:26:41;;;;;;;16.77;14.57;;;15.60;72.50;;;;;;5030566;28;20061;-78
2022/03/24 10:29:07;;;;;;;16.77;13.77;;;15.60;72.50;;;;;;5030964;28;20071;-76
2022/03/24 10:31:35;;;;;;;17.90;14.23;;;15.60;72.50;;;;;;5030586;28;20120;-75
2022/03/24 10:34:00;;;;;;;17.30;14.55;;;15.60;72.50;;;;;;5031459;28;20039;-78
2022/03/24 10:36:27;;;;;;;16.55;14.75;;;16.00;72.80;;;;;;5030190;28;20025;-76
2022/03/24 10:38:54;;;;;;;17.30;14.63;;;15.60;72.60;;;;;;5030416;28;20156;-76
2022/03/24 10:41:25;;;;;;;18.02;14.43;;;15.70;72.60;;;;;;5030821;28;20030;-75
2022/03/24 10:44:00;;;;;;;16.25;13.73;;;15.60;72.60;;;;;;5030948;28;20017;-76
2022/03/24 10:46:31;;;;;;;17.60;14.48;;;15.60;72.60;;;;;;5031317;28;20048;-78
2022/03/24 10:48:56;;;;;;;18.50;14.90;;;15.60;72.50;;;;;;5030818;28;20029;-77
2022/03/24 10:51:27;;;;;;;16.63;13.80;;;15.60;72.50;;;;;;5030883;28;20029;-76
2022/03/24 10:54:15;;;;;;;18.03;14.90;;;15.70;72.60;;;;;;5030958;28;20519;-75
2022/03/24 10:56:56;;;;;;;16.55;14.43;;;15.70;72.50;;;;;;5025043;28;20088;-76
2022/03/24 10:59:26;;;;;;;17.05;14.45;;;15.70;72.50;;;;;;5031684;28;20025;-75
2022/03/24 11:01:53;;;;;;;17.80;14.63;;;15.70;72.40;;;;;;5031827;28;20040;-78
2022/03/24 11:04:19;;;;;;;16.60;13.93;;;15.70;72.40;;;;;;5030824;28;20029;-75
2022/03/24 11:06:52;;;;;;;17.38;14.93;;;15.70;72.40;;;;;;5030500;28;20037;-75
2022/03/24 11:09:23;;;;;;;16.45;13.95;;;15.80;72.40;;;;;;5030684;28;20021;-76
2022/03/24 11:11:56;;;;;;;17.15;14.07;;;15.70;72.40;;;;;;5031658;28;20025;-76
2022/03/24 11:14:21;;;;;;;17.42;13.80;;;15.80;72.40;;;;;;5030027;28;20495;-76
2022/03/24 11:16:47;;;;;;;17.08;13.90;;;15.80;72.30;;;;;;5027715;28;20032;-76
2022/03/24 11:19:15;;;;;;;16.83;14.57;;;15.80;72.30;;;;;;5027878;28;20557;-78
2022/03/24 11:21:57;;;;;;;16.30;14.02;;;15.80;72.30;;;;;;5028225;28;20029;-77
2022/03/24 11:24:24;;;;;;;16.95;14.40;;;15.80;72.20;;;;;;5028488;28;20039;-78
2022/03/24 11:26:50;;;;;;;17.08;14.27;;;15.80;72.20;;;;;;5028058;28;20053;-77
2022/03/24 11:29:16;;;;;;;16.02;14.02;;;15.80;72.20;;;;;;5029728;28;20037;-78
2022/03/24 11:31:45;;;;;;;16.65;14.38;;;15.80;72.10;;;;;;5028687;28;20033;-76
2022/03/24 11:34:11;;;;;;;16.75;14.05;;;15.80;72.20;;;;;;5029679;28;20108;-75
2022/03/24 11:36:37;;;;;;;15.95;13.63;;;15.80;72.20;;;;;;5029661;28;20183;-76
2022/03/24 11:39:08;;;;;;;16.83;13.65;;;15.90;72.20;;;;;;5029941;28;20558;-75
2022/03/24 11:41:43;;;;;;;15.77;13.50;;;15.80;72.20;;;;;;5029081;28;20026;-80
2022/03/24 11:44:29;;;;;;;17.52;14.95;;;15.80;72.20;;;;;;5030046;28;20034;-75
2022/03/24 11:47:00;;;;;;;16.45;14.00;;;15.80;72.30;;;;;;5028733;28;20120;-74
2022/03/24 11:49:28;;;;;;;15.82;13.63;;;15.80;72.30;;;;;;5028980;28;20021;-75
2022/03/24 11:51:57;;;;;;;15.93;13.52;;;15.80;72.30;;;;;;5029265;28;20566;-78
2022/03/24 11:54:35;;;;;;;16.90;14.45;;;15.80;72.30;;;;;;5030664;28;20030;-77
2022/03/24 11:57:24;;;;;;;16.67;14.20;;;15.80;72.30;;;;;;5030261;28;20030;-76
2022/03/24 12:00:10;;;;;;;16.52;13.60;;;15.80;72.30;;;;;;5030547;28;20036;-76
2022/03/24 12:02:35;;;;;;;15.95;13.43;;;15.80;72.90;;;;;;5031027;28;20022;-76
2022/03/24 12:05:01;;;;;;;17.17;13.63;;;15.80;72.30;;;;;;5035163;28;20044;-77
2022/03/24 12:07:27;;;;;;;15.90;13.63;;;15.80;72.30;;;;;;5033643;28;20027;-76
2022/03/24 12:10:02;;;;;;;15.43;13.48;;;15.80;72.30;;;;;;5034630;28;20034;-76
2022/03/24 12:12:29;;;;;;;16.20;13.98;;;15.80;72.30;;;;;;5034414;28;20020;-77
2022/03/24 12:14:55;;;;;;;15.63;13.32;;;15.80;72.30;;;;;;5033208;28;20083;-77
2022/03/24 12:17:30;;;;;;;16.80;13.43;;;15.80;72.30;;;;;;5032762;28;20036;-75
2022/03/24 12:20:00;;;;;;;15.73;13.63;;;15.80;72.30;;;;;;5033166;28;20025;-79
2022/03/24 12:22:26;;;;;;;16.02;13.45;;;15.80;72.40;;;;;;5034667;28;20026;-78
2022/03/24 12:24:58;;;;;;;15.18;13.40;;;15.80;72.40;;;;;;5034400;28;20032;-76
2022/03/24 12:27:23;;;;;;;16.27;13.90;;;15.80;72.30;;;;;;5032884;28;20048;-79
2022/03/24 12:30:18;;;;;;;14.43;12.85;;;15.80;72.40;;;;;;5033014;28;20060;-76
2022/03/24 12:33:19;;;;;;;15.27;13.20;;;15.80;72.40;;;;;;5033162;28;20064;-78